sensor_id;sensor_type;location;lat;lon;timestamp;pressure;altitude;pressure_sealevel;temperature;humidity
76285;BME280;65096;50.998;7.098;2023-02-10T00:02:00;102923.91;;;1.95;53.48
76285;BME280;65096;50.998;7.098;2023-02-10T00:04:26;102931.66;;;1.96;54.19
76285;BME280;65096;50.998;7.098;2023-02-10T00:06:53;102923.91;;;1.95;53.62
76285;BME280;65096;50.998;7.098;2023-02-10T00:09:22;102936.84;;;1.98;55.13
76285;BME280;65096;50.998;7.098;2023-02-10T00:11:48;102941.81;;;1.96;53.16
76285;BME280;65096;50.998;7.098;2023-02-10T00:14:25;102917.31;;;1.87;56.35
76285;BME280;65096;50.998;7.098;2023-02-10T00:16:53;102936.63;;;1.95;55.25
76285;BME280;65096;50.998;7.098;2023-02-10T00:19:23;102929.66;;;1.92;52.44
76285;BME280;65096;50.998;7.098;2023-02-10T00:21:50;102937.75;;;1.98;52.15
76285;BME280;65096;50.998;7.098;2023-02-10T00:24:17;102941.41;;;2.02;52.96
76285;BME280;65096;50.998;7.098;2023-02-10T00:26:44;102940.75;;;2.05;53.21
76285;BME280;65096;50.998;7.098;2023-02-10T00:29:10;102936.31;;;2.02;51.65
76285;BME280;65096;50.998;7.098;2023-02-10T00:31:37;102941.41;;;2.02;52.27
76285;BME280;65096;50.998;7.098;2023-02-10T00:34:04;102941.66;;;2.05;53.46
76285;BME280;65096;50.998;7.098;2023-02-10T00:36:32;102944.72;;;2.01;52.98
76285;BME280;65096;50.998;7.098;2023-02-10T00:38:59;102944.06;;;2.04;53.35
76285;BME280;65096;50.998;7.098;2023-02-10T00:41:25;102943.41;;;2.06;53.78
76285;BME280;65096;50.998;7.098;2023-02-10T00:43:52;102950.25;;;2.07;54.62
76285;BME280;65096;50.998;7.098;2023-02-10T00:46:20;102953.59;;;2.06;53.11
76285;BME280;65096;50.998;7.098;2023-02-10T00:48:48;102952.06;;;2.08;52.74
76285;BME280;65096;50.998;7.098;2023-02-10T00:51:16;102954.94;;;2.13;53.42
76285;BME280;65096;50.998;7.098;2023-02-10T00:53:44;102952.38;;;2.13;54.54
76285;BME280;65096;50.998;7.098;2023-02-10T00:56:13;102949.63;;;2.10;54.66
76285;BME280;65096;50.998;7.098;2023-02-10T00:58:42;102950.25;;;2.07;53.83
76285;BME280;65096;50.998;7.098;2023-02-10T01:01:08;102952.06;;;2.08;54.20
76285;BME280;65096;50.998;7.098;2023-02-10T01:03:35;102954.38;;;2.05;57.34
76285;BME280;65096;50.998;7.098;2023-02-10T01:06:02;102951.34;;;1.99;54.78
76285;BME280;65096;50.998;7.098;2023-02-10T01:08:30;102934.94;;;1.74;59.58
76285;BME280;65096;50.998;7.098;2023-02-10T01:11:03;102952.34;;;1.79;58.08
76285;BME280;65096;50.998;7.098;2023-02-10T01:13:30;102952.09;;;1.76;58.35
76285;BME280;65096;50.998;7.098;2023-02-10T01:15:59;102959.47;;;1.73;57.42
76285;BME280;65096;50.998;7.098;2023-02-10T01:18:26;102958.28;;;1.80;55.96
76285;BME280;65096;50.998;7.098;2023-02-10T01:20:52;102957.78;;;1.84;54.82
76285;BME280;65096;50.998;7.098;2023-02-10T01:23:19;102958.00;;;1.87;56.85
76285;BME280;65096;50.998;7.098;2023-02-10T01:25:46;102966.03;;;1.81;56.79
76285;BME280;65096;50.998;7.098;2023-02-10T01:28:14;102968.06;;;1.85;56.21
76285;BME280;65096;50.998;7.098;2023-02-10T01:30:41;102970.19;;;1.91;55.86
76285;BME280;65096;50.998;7.098;2023-02-10T01:33:08;102957.22;;;1.88;54.85
76285;BME280;65096;50.998;7.098;2023-02-10T01:35:37;102970.03;;;1.99;57.14
76285;BME280;65096;50.998;7.098;2023-02-10T01:38:05;102971.34;;;1.94;56.76
76285;BME280;65096;50.998;7.098;2023-02-10T01:40:31;102973.75;;;1.93;55.18
76285;BME280;65096;50.998;7.098;2023-02-10T01:42:58;102973.25;;;1.97;57.54
76285;BME280;65096;50.998;7.098;2023-02-10T01:45:32;102973.03;;;1.84;57.45
76285;BME280;65096;50.998;7.098;2023-02-10T01:47:59;102972.50;;;1.88;55.41
76285;BME280;65096;50.998;7.098;2023-02-10T01:50:29;102975.16;;;1.89;56.07
76285;BME280;65096;50.998;7.098;2023-02-10T01:52:57;102973.63;;;1.91;59.35
76285;BME280;65096;50.998;7.098;2023-02-10T01:55:28;102970.97;;;1.90;56.82
76285;BME280;65096;50.998;7.098;2023-02-10T01:57:59;102975.56;;;1.94;55.23
76285;BME280;65096;50.998;7.098;2023-02-10T02:00:29;102980.78;;;1.95;55.90
76285;BME280;65096;50.998;7.098;2023-02-10T02:02:55;102987.97;;;2.01;54.13
76285;BME280;65096;50.998;7.098;2023-02-10T02:05:29;102988.31;;;2.06;56.35
76285;BME280;65096;50.998;7.098;2023-02-10T02:07:58;102985.88;;;2.07;54.60
76285;BME280;65096;50.998;7.098;2023-02-10T02:10:34;102991.34;;;2.12;57.05
76285;BME280;65096;50.998;7.098;2023-02-10T02:13:09;102987.13;;;2.12;55.32
76285;BME280;65096;50.998;7.098;2023-02-10T02:15:42;102994.88;;;2.14;55.20
76285;BME280;65096;50.998;7.098;2023-02-10T02:18:14;102987.50;;;2.17;55.07
76285;BME280;65096;50.998;7.098;2023-02-10T02:21:00;102986.84;;;2.19;55.79
76285;BME280;65096;50.998;7.098;2023-02-10T02:24:01;102983.50;;;2.20;57.35
76285;BME280;65096;50.998;7.098;2023-02-10T02:26:45;102984.69;;;2.14;57.87
76285;BME280;65096;50.998;7.098;2023-02-10T02:32:39;102986.38;;;2.13;55.61
76285;BME280;65096;50.998;7.098;2023-02-10T02:35:10;102992.44;;;2.15;55.25
76285;BME280;65096;50.998;7.098;2023-02-10T02:37:40;102993.34;;;2.16;55.46
76285;BME280;65096;50.998;7.098;2023-02-10T02:40:09;102996.66;;;2.15;53.95
76285;BME280;65096;50.998;7.098;2023-02-10T02:42:38;102999.56;;;2.19;54.24
76285;BME280;65096;50.998;7.098;2023-02-10T02:45:08;102998.88;;;2.22;54.69
76285;BME280;65096;50.998;7.098;2023-02-10T02:48:02;102970.63;;;2.07;56.29
76285;BME280;65096;50.998;7.098;2023-02-10T02:50:34;103000.25;;;2.28;55.12
76285;BME280;65096;50.998;7.098;2023-02-10T02:53:09;102993.50;;;2.29;56.47
76285;BME280;65096;50.998;7.098;2023-02-10T02:55:50;102996.84;;;2.28;55.85
76285;BME280;65096;50.998;7.098;2023-02-10T02:58:26;103006.22;;;2.29;56.46
76285;BME280;65096;50.998;7.098;2023-02-10T03:00:59;102998.38;;;2.26;55.20
76285;BME280;65096;50.998;7.098;2023-02-10T03:03:32;103001.03;;;2.27;55.21
76285;BME280;65096;50.998;7.098;2023-02-10T03:05:59;103001.03;;;2.27;54.84
76285;BME280;65096;50.998;7.098;2023-02-10T03:08:26;103015.75;;;2.31;55.13
76285;BME280;65096;50.998;7.098;2023-02-10T03:10:53;102976.81;;;2.11;54.83
76285;BME280;65096;50.998;7.098;2023-02-10T03:13:20;103017.53;;;2.32;54.48
76285;BME280;65096;50.998;7.098;2023-02-10T03:15:46;103010.66;;;2.31;54.28
76285;BME280;65096;50.998;7.098;2023-02-10T03:18:14;103012.56;;;2.34;55.05
76285;BME280;65096;50.998;7.098;2023-02-10T03:20:42;103014.31;;;2.35;54.96
76285;BME280;65096;50.998;7.098;2023-02-10T03:23:09;103011.44;;;2.30;54.31
76285;BME280;65096;50.998;7.098;2023-02-10T03:25:36;103016.75;;;2.33;55.18
76285;BME280;65096;50.998;7.098;2023-02-10T03:28:03;103023.50;;;2.33;55.41
76285;BME280;65096;50.998;7.098;2023-02-10T03:30:31;103020.94;;;2.33;55.54
76285;BME280;65096;50.998;7.098;2023-02-10T03:32:57;103018.41;;;2.33;55.26
76285;BME280;65096;50.998;7.098;2023-02-10T03:35:24;103023.38;;;2.31;55.39
76285;BME280;65096;50.998;7.098;2023-02-10T03:37:52;103024.28;;;2.32;55.53
76285;BME280;65096;50.998;7.098;2023-02-10T03:40:19;103018.28;;;2.31;54.92
76285;BME280;65096;50.998;7.098;2023-02-10T03:42:45;102996.13;;;2.19;55.28
76285;BME280;65096;50.998;7.098;2023-02-10T03:45:12;103017.31;;;2.29;55.46
76285;BME280;65096;50.998;7.098;2023-02-10T03:47:39;103004.47;;;2.28;55.59
76285;BME280;65096;50.998;7.098;2023-02-10T03:50:06;103009.44;;;2.26;55.62
76285;BME280;65096;50.998;7.098;2023-02-10T03:52:33;102999.91;;;2.24;55.34
76285;BME280;65096;50.998;7.098;2023-02-10T03:55:01;102994.69;;;2.22;55.95
76285;BME280;65096;50.998;7.098;2023-02-10T03:57:27;102989.25;;;2.18;56.87
76285;BME280;65096;50.998;7.098;2023-02-10T03:59:54;102987.00;;;2.11;56.39
76285;BME280;65096;50.998;7.098;2023-02-10T04:02:21;102979.94;;;2.07;57.63
76285;BME280;65096;50.998;7.098;2023-02-10T04:04:48;102977.03;;;2.02;57.49
76285;BME280;65096;50.998;7.098;2023-02-10T04:07:15;102968.69;;;1.93;60.94
76285;BME280;65096;50.998;7.098;2023-02-10T04:09:42;102965.47;;;1.74;60.66
76285;BME280;65096;50.998;7.098;2023-02-10T04:12:10;102970.00;;;1.56;62.20
76285;BME280;65096;50.998;7.098;2023-02-10T04:14:36;102977.50;;;1.55;59.94
76285;BME280;65096;50.998;7.098;2023-02-10T04:17:03;102974.97;;;1.55;60.71
76285;BME280;65096;50.998;7.098;2023-02-10T04:19:30;102981.06;;;1.57;60.21
76285;BME280;65096;50.998;7.098;2023-02-10T04:21:57;102979.38;;;1.57;58.79
76285;BME280;65096;50.998;7.098;2023-02-10T04:24:23;102989.16;;;1.63;58.17
76285;BME280;65096;50.998;7.098;2023-02-10T04:26:50;102977.81;;;1.69;57.84
76285;BME280;65096;50.998;7.098;2023-02-10T04:29:18;102996.88;;;1.74;56.88
76285;BME280;65096;50.998;7.098;2023-02-10T04:31:45;102999.88;;;1.80;57.81
76285;BME280;65096;50.998;7.098;2023-02-10T04:34:12;102996.72;;;1.83;57.35
76285;BME280;65096;50.998;7.098;2023-02-10T04:36:38;103000.13;;;1.83;57.04
76285;BME280;65096;50.998;7.098;2023-02-10T04:39:05;103001.91;;;1.84;57.00
76285;BME280;65096;50.998;7.098;2023-02-10T04:41:33;103006.22;;;1.85;56.99
76285;BME280;65096;50.998;7.098;2023-02-10T04:44:00;102999.38;;;1.84;56.63
76285;BME280;65096;50.998;7.098;2023-02-10T04:46:28;103007.88;;;1.85;56.71
76285;BME280;65096;50.998;7.098;2023-02-10T04:48:55;103011.97;;;1.83;56.54
76285;BME280;65096;50.998;7.098;2023-02-10T04:51:22;103014.53;;;1.83;56.47
76285;BME280;65096;50.998;7.098;2023-02-10T04:53:48;103016.91;;;1.81;56.20
76285;BME280;65096;50.998;7.098;2023-02-10T04:56:15;103018.47;;;1.79;56.26
76285;BME280;65096;50.998;7.098;2023-02-10T04:58:42;103015.56;;;1.75;56.26
76285;BME280;65096;50.998;7.098;2023-02-10T05:01:09;103024.06;;;1.75;56.70
76285;BME280;65096;50.998;7.098;2023-02-10T05:03:37;103023.06;;;1.73;56.43
76285;BME280;65096;50.998;7.098;2023-02-10T05:06:08;103028.81;;;1.71;56.63
76285;BME280;65096;50.998;7.098;2023-02-10T05:08:35;103031.22;;;1.69;56.62
76285;BME280;65096;50.998;7.098;2023-02-10T05:11:06;103032.63;;;1.66;56.14
76285;BME280;65096;50.998;7.098;2023-02-10T05:13:33;103027.44;;;1.64;56.27
76285;BME280;65096;50.998;7.098;2023-02-10T05:15:59;103025.56;;;1.62;56.45
76285;BME280;65096;50.998;7.098;2023-02-10T05:18:28;103024.41;;;1.58;56.04
76285;BME280;65096;50.998;7.098;2023-02-10T05:20:56;103024.19;;;1.55;56.57
76285;BME280;65096;50.998;7.098;2023-02-10T05:23:22;103027.22;;;1.51;56.18
76285;BME280;65096;50.998;7.098;2023-02-10T05:25:49;103029.53;;;1.48;56.39
76285;BME280;65096;50.998;7.098;2023-02-10T05:28:16;103030.94;;;1.45;56.47
76285;BME280;65096;50.998;7.098;2023-02-10T05:30:42;103032.50;;;1.43;56.56
76285;BME280;65096;50.998;7.098;2023-02-10T05:33:09;103038.97;;;1.39;56.13
76285;BME280;65096;50.998;7.098;2023-02-10T05:35:36;103032.09;;;1.38;56.27
76285;BME280;65096;50.998;7.098;2023-02-10T05:38:04;103040.38;;;1.36;56.78
76285;BME280;65096;50.998;7.098;2023-02-10T05:40:31;103040.13;;;1.33;56.34
76285;BME280;65096;50.998;7.098;2023-02-10T05:42:58;103040.75;;;1.30;56.16
76285;BME280;65096;50.998;7.098;2023-02-10T05:45:25;103041.19;;;1.25;56.06
76285;BME280;65096;50.998;7.098;2023-02-10T05:47:51;103034.56;;;1.27;56.05
76285;BME280;65096;50.998;7.098;2023-02-10T05:50:18;103033.44;;;1.23;56.26
76285;BME280;65096;50.998;7.098;2023-02-10T05:52:45;103041.56;;;1.19;56.27
76285;BME280;65096;50.998;7.098;2023-02-10T05:55:13;103045.66;;;1.17;56.61
76285;BME280;65096;50.998;7.098;2023-02-10T05:57:40;103046.28;;;1.15;56.15
76285;BME280;65096;50.998;7.098;2023-02-10T06:00:08;103047.91;;;1.14;56.74
76285;BME280;65096;50.998;7.098;2023-02-10T06:02:35;103041.59;;;1.09;55.86
76285;BME280;65096;50.998;7.098;2023-02-10T06:05:01;103040.69;;;1.09;56.56
76285;BME280;65096;50.998;7.098;2023-02-10T06:07:28;103043.88;;;1.06;56.51
76285;BME280;65096;50.998;7.098;2023-02-10T06:09:55;103037.53;;;1.01;56.48
76285;BME280;65096;50.998;7.098;2023-02-10T06:12:23;103043.25;;;0.99;56.91
76285;BME280;65096;50.998;7.098;2023-02-10T06:14:50;103033.63;;;0.95;56.76
76285;BME280;65096;50.998;7.098;2023-02-10T06:17:17;103044.41;;;0.92;56.70
76285;BME280;65096;50.998;7.098;2023-02-10T06:19:43;103041.72;;;0.91;56.81
76285;BME280;65096;50.998;7.098;2023-02-10T06:22:10;103015.84;;;0.75;56.94
76285;BME280;65096;50.998;7.098;2023-02-10T06:24:37;103055.81;;;0.87;56.84
76285;BME280;65096;50.998;7.098;2023-02-10T06:27:04;103057.50;;;0.87;56.36
76285;BME280;65096;50.998;7.098;2023-02-10T06:29:33;103059.78;;;0.84;56.48
76285;BME280;65096;50.998;7.098;2023-02-10T06:31:59;103068.28;;;0.84;56.67
76285;BME280;65096;50.998;7.098;2023-02-10T06:34:26;103071.22;;;0.79;56.25
76285;BME280;65096;50.998;7.098;2023-02-10T06:36:53;103075.53;;;0.80;55.86
76285;BME280;65096;50.998;7.098;2023-02-10T06:39:22;103072.59;;;0.75;56.17
76285;BME280;65096;50.998;7.098;2023-02-10T06:41:49;103075.28;;;0.77;56.53
76285;BME280;65096;50.998;7.098;2023-02-10T06:44:16;103080.09;;;0.74;56.98
76285;BME280;65096;50.998;7.098;2023-02-10T06:46:44;103075.63;;;0.71;57.20
76285;BME280;65096;50.998;7.098;2023-02-10T06:49:11;103081.38;;;0.69;56.47
76285;BME280;65096;50.998;7.098;2023-02-10T06:51:38;103080.47;;;0.68;56.78
76285;BME280;65096;50.998;7.098;2023-02-10T06:54:04;103092.16;;;0.66;56.63
76285;BME280;65096;50.998;7.098;2023-02-10T06:56:32;103090.25;;;0.64;56.50
76285;BME280;65096;50.998;7.098;2023-02-10T06:58:59;103098.63;;;0.63;57.65
76285;BME280;65096;50.998;7.098;2023-02-10T07:01:26;103112.06;;;0.62;57.33
76285;BME280;65096;50.998;7.098;2023-02-10T07:03:54;103106.72;;;0.58;57.50
76285;BME280;65096;50.998;7.098;2023-02-10T07:06:20;103111.69;;;0.57;57.57
76285;BME280;65096;50.998;7.098;2023-02-10T07:08:48;103117.78;;;0.59;58.00
76285;BME280;65096;50.998;7.098;2023-02-10T07:11:16;103118.44;;;0.57;57.81
76285;BME280;65096;50.998;7.098;2023-02-10T07:13:44;103120.97;;;0.57;57.96
76285;BME280;65096;50.998;7.098;2023-02-10T07:16:10;103119.03;;;0.54;57.66
76285;BME280;65096;50.998;7.098;2023-02-10T07:18:40;103117.41;;;0.54;58.13
76285;BME280;65096;50.998;7.098;2023-02-10T07:21:08;103117.41;;;0.54;58.24
76285;BME280;65096;50.998;7.098;2023-02-10T07:23:35;103102.03;;;0.43;57.96
76285;BME280;65096;50.998;7.098;2023-02-10T07:26:01;103124.25;;;0.55;58.20
76285;BME280;65096;50.998;7.098;2023-02-10T07:28:29;103124.25;;;0.55;57.65
76285;BME280;65096;50.998;7.098;2023-02-10T07:30:56;103120.06;;;0.56;58.55
76285;BME280;65096;50.998;7.098;2023-02-10T07:33:23;103094.91;;;0.49;57.98
76285;BME280;65096;50.998;7.098;2023-02-10T07:35:50;103117.00;;;0.60;58.58
76285;BME280;65096;50.998;7.098;2023-02-10T07:38:18;103115.25;;;0.59;57.85
76285;BME280;65096;50.998;7.098;2023-02-10T07:40:45;103117.91;;;0.61;58.48
76285;BME280;65096;50.998;7.098;2023-02-10T07:43:12;103112.06;;;0.62;58.37
76285;BME280;65096;50.998;7.098;2023-02-10T07:45:38;103121.47;;;0.63;58.05
76285;BME280;65096;50.998;7.098;2023-02-10T07:48:05;103114.00;;;0.64;58.88
76285;BME280;65096;50.998;7.098;2023-02-10T07:50:32;103118.16;;;0.64;60.66
76285;BME280;65096;50.998;7.098;2023-02-10T07:52:58;103109.16;;;0.57;61.69
76285;BME280;65096;50.998;7.098;2023-02-10T07:55:26;103106.22;;;0.52;64.82
76285;BME280;65096;50.998;7.098;2023-02-10T07:57:53;103114.97;;;0.46;62.68
76285;BME280;65096;50.998;7.098;2023-02-10T08:00:23;103118.41;;;0.46;60.85
76285;BME280;65096;50.998;7.098;2023-02-10T08:02:50;103114.72;;;0.43;60.51
76285;BME280;65096;50.998;7.098;2023-02-10T08:05:16;103117.28;;;0.53;63.75
76285;BME280;65096;50.998;7.098;2023-02-10T08:07:43;103113.59;;;0.49;61.15
76285;BME280;65096;50.998;7.098;2023-02-10T08:10:10;103115.38;;;0.61;62.03
76285;BME280;65096;50.998;7.098;2023-02-10T08:12:38;103122.09;;;0.60;60.03
76285;BME280;65096;50.998;7.098;2023-02-10T08:15:06;103122.47;;;0.65;59.38
76285;BME280;65096;50.998;7.098;2023-02-10T08:17:33;103120.97;;;0.67;60.06
76285;BME280;65096;50.998;7.098;2023-02-10T08:20:00;103124.91;;;0.73;59.85
76285;BME280;65096;50.998;7.098;2023-02-10T08:22:27;103126.06;;;0.77;59.37
76285;BME280;65096;50.998;7.098;2023-02-10T08:24:53;103128.06;;;0.81;60.45
76285;BME280;65096;50.998;7.098;2023-02-10T08:27:20;103125.69;;;0.82;60.59
76285;BME280;65096;50.998;7.098;2023-02-10T08:29:48;103115.00;;;0.86;60.44
76285;BME280;65096;50.998;7.098;2023-02-10T08:32:14;103114.53;;;0.90;59.93
76285;BME280;65096;50.998;7.098;2023-02-10T08:34:44;103118.19;;;0.94;59.36
76285;BME280;65096;50.998;7.098;2023-02-10T08:37:11;103112.97;;;0.92;63.05
76285;BME280;65096;50.998;7.098;2023-02-10T08:39:38;103110.19;;;0.89;66.92
76285;BME280;65096;50.998;7.098;2023-02-10T08:42:05;103116.66;;;0.86;63.73
76285;BME280;65096;50.998;7.098;2023-02-10T08:44:31;103125.16;;;0.86;60.76
76285;BME280;65096;50.998;7.098;2023-02-10T08:47:00;103132.56;;;0.93;60.32
76285;BME280;65096;50.998;7.098;2023-02-10T08:49:26;103142.72;;;0.93;60.98
76285;BME280;65096;50.998;7.098;2023-02-10T08:51:54;103130.63;;;0.81;61.03
76285;BME280;65096;50.998;7.098;2023-02-10T08:54:21;103138.63;;;1.05;61.92
76285;BME280;65096;50.998;7.098;2023-02-10T08:56:49;103146.63;;;1.10;61.12
76285;BME280;65096;50.998;7.098;2023-02-10T08:59:19;103149.56;;;1.14;60.68
76285;BME280;65096;50.998;7.098;2023-02-10T09:01:45;103152.38;;;1.17;60.86
76285;BME280;65096;50.998;7.098;2023-02-10T09:04:13;103145.25;;;1.23;62.13
76285;BME280;65096;50.998;7.098;2023-02-10T09:06:40;103148.94;;;1.27;64.07
76285;BME280;65096;50.998;7.098;2023-02-10T09:09:09;103144.63;;;1.06;64.85
76285;BME280;65096;50.998;7.098;2023-02-10T09:11:36;103149.44;;;1.13;66.68
76285;BME280;65096;50.998;7.098;2023-02-10T09:14:03;103147.41;;;1.09;64.81
76285;BME280;65096;50.998;7.098;2023-02-10T09:16:30;103148.94;;;1.07;64.07
76285;BME280;65096;50.998;7.098;2023-02-10T09:18:57;103145.75;;;1.19;62.41
76285;BME280;65096;50.998;7.098;2023-02-10T09:21:25;103142.09;;;1.16;67.02
76285;BME280;65096;50.998;7.098;2023-02-10T09:23:52;103147.78;;;1.23;66.37
76285;BME280;65096;50.998;7.098;2023-02-10T09:26:18;103142.84;;;1.25;63.22
76285;BME280;65096;50.998;7.098;2023-02-10T09:28:48;103143.94;;;1.38;63.07
76285;BME280;65096;50.998;7.098;2023-02-10T09:31:15;103146.34;;;1.47;63.20
76285;BME280;65096;50.998;7.098;2023-02-10T09:33:42;103151.94;;;1.53;61.65
76285;BME280;65096;50.998;7.098;2023-02-10T09:36:13;103156.28;;;1.44;65.71
76285;BME280;65096;50.998;7.098;2023-02-10T09:38:41;103152.34;;;1.47;62.99
76285;BME280;65096;50.998;7.098;2023-02-10T09:41:18;103157.66;;;1.60;63.26
76285;BME280;65096;50.998;7.098;2023-02-10T09:43:50;103145.56;;;1.68;62.55
76285;BME280;65096;50.998;7.098;2023-02-10T09:46:28;103149.47;;;1.74;63.76
76285;BME280;65096;50.998;7.098;2023-02-10T09:49:08;103145.78;;;1.71;64.31
76285;BME280;65096;50.998;7.098;2023-02-10T09:51:46;103149.63;;;1.66;66.06
76285;BME280;65096;50.998;7.098;2023-02-10T09:54:16;103146.31;;;1.67;64.44
76285;BME280;65096;50.998;7.098;2023-02-10T09:56:43;103155.31;;;1.73;63.32
76285;BME280;65096;50.998;7.098;2023-02-10T09:59:13;103166.88;;;1.80;63.14
76285;BME280;65096;50.998;7.098;2023-02-10T10:01:44;103162.19;;;1.84;62.57
76285;BME280;65096;50.998;7.098;2023-02-10T10:04:14;103167.16;;;1.83;64.38
76285;BME280;65096;50.998;7.098;2023-02-10T10:06:43;103169.69;;;1.73;65.37
76285;BME280;65096;50.998;7.098;2023-02-10T10:09:26;103170.19;;;1.79;63.49
76285;BME280;65096;50.998;7.098;2023-02-10T10:11:56;103172.97;;;1.82;63.11
76285;BME280;65096;50.998;7.098;2023-02-10T10:14:26;103173.72;;;2.01;62.47
76285;BME280;65096;50.998;7.098;2023-02-10T10:17:08;103175.09;;;2.08;63.90
76285;BME280;65096;50.998;7.098;2023-02-10T10:19:45;103177.78;;;1.99;64.88
76285;BME280;65096;50.998;7.098;2023-02-10T10:22:27;103178.28;;;2.05;62.76
76285;BME280;65096;50.998;7.098;2023-02-10T10:25:20;103185.88;;;2.15;63.99
76285;BME280;65096;50.998;7.098;2023-02-10T10:27:57;103150.78;;;2.11;64.06
76285;BME280;65096;50.998;7.098;2023-02-10T10:30:33;103188.34;;;2.35;63.66
76285;BME280;65096;50.998;7.098;2023-02-10T10:33:14;103190.72;;;2.44;64.54
76285;BME280;65096;50.998;7.098;2023-02-10T10:35:44;103191.69;;;2.77;64.32
76285;BME280;65096;50.998;7.098;2023-02-10T10:38:13;103192.91;;;3.04;62.50
76285;BME280;65096;50.998;7.098;2023-02-10T10:40:43;103181.41;;;3.65;61.13
76285;BME280;65096;50.998;7.098;2023-02-10T10:43:16;103164.94;;;4.08;60.21
76285;BME280;65096;50.998;7.098;2023-02-10T10:45:48;103167.06;;;4.13;59.13
76285;BME280;65096;50.998;7.098;2023-02-10T10:48:18;103167.34;;;4.52;59.34
76285;BME280;65096;50.998;7.098;2023-02-10T10:50:49;103166.06;;;4.70;57.01
76285;BME280;65096;50.998;7.098;2023-02-10T10:53:18;103168.69;;;5.21;55.69
76285;BME280;65096;50.998;7.098;2023-02-10T10:55:50;103153.09;;;5.69;54.42
76285;BME280;65096;50.998;7.098;2023-02-10T10:58:23;103141.09;;;6.07;55.16
76285;BME280;65096;50.998;7.098;2023-02-10T11:00:52;103148.75;;;6.33;53.70
76285;BME280;65096;50.998;7.098;2023-02-10T11:03:20;103132.91;;;6.66;52.54
76285;BME280;65096;50.998;7.098;2023-02-10T11:05:58;103137.84;;;6.63;53.54
76285;BME280;65096;50.998;7.098;2023-02-10T11:08:27;103135.09;;;6.75;52.26
76285;BME280;65096;50.998;7.098;2023-02-10T11:10:58;103080.22;;;6.86;52.96
76285;BME280;65096;50.998;7.098;2023-02-10T11:13:28;103107.56;;;7.00;51.47
76285;BME280;65096;50.998;7.098;2023-02-10T11:16:01;103119.44;;;7.27;49.72
76285;BME280;65096;50.998;7.098;2023-02-10T11:18:29;103102.16;;;7.10;51.20
76285;BME280;65096;50.998;7.098;2023-02-10T11:20:58;103114.56;;;7.02;50.52
76285;BME280;65096;50.998;7.098;2023-02-10T11:23:26;103108.28;;;7.12;51.01
76285;BME280;65096;50.998;7.098;2023-02-10T11:26:03;103109.09;;;7.11;49.44
76285;BME280;65096;50.998;7.098;2023-02-10T11:28:33;103099.59;;;7.10;50.39
76285;BME280;65096;50.998;7.098;2023-02-10T11:31:03;103095.28;;;7.09;50.52
76285;BME280;65096;50.998;7.098;2023-02-10T11:33:32;103058.94;;;7.16;50.08
76285;BME280;65096;50.998;7.098;2023-02-10T11:36:02;103095.03;;;7.33;50.54
76285;BME280;65096;50.998;7.098;2023-02-10T11:38:30;103084.91;;;7.36;50.78
76285;BME280;65096;50.998;7.098;2023-02-10T11:40:59;103079.78;;;7.36;50.12
76285;BME280;65096;50.998;7.098;2023-02-10T11:43:30;103082.88;;;7.45;50.60
76285;BME280;65096;50.998;7.098;2023-02-10T11:45:59;103078.97;;;7.52;50.70
76285;BME280;65096;50.998;7.098;2023-02-10T11:48:28;103084.00;;;7.50;50.03
76285;BME280;65096;50.998;7.098;2023-02-10T11:51:04;103078.09;;;7.37;50.49
76285;BME280;65096;50.998;7.098;2023-02-10T11:53:34;103074.75;;;7.23;49.84
76285;BME280;65096;50.998;7.098;2023-02-10T11:56:05;103063.50;;;7.36;50.07
76285;BME280;65096;50.998;7.098;2023-02-10T11:58:45;103073.66;;;7.49;49.35
76285;BME280;65096;50.998;7.098;2023-02-10T12:01:38;103074.56;;;7.49;49.81
76285;BME280;65096;50.998;7.098;2023-02-10T12:04:18;103073.09;;;7.24;48.90
76285;BME280;65096;50.998;7.098;2023-02-10T12:06:57;103072.59;;;7.31;50.70
76285;BME280;65096;50.998;7.098;2023-02-10T12:09:27;103068.97;;;7.27;50.48
76285;BME280;65096;50.998;7.098;2023-02-10T12:12:03;103068.47;;;7.33;50.60
76285;BME280;65096;50.998;7.098;2023-02-10T12:14:48;103072.63;;;7.02;49.65
76285;BME280;65096;50.998;7.098;2023-02-10T12:17:27;103066.63;;;7.01;50.61
76285;BME280;65096;50.998;7.098;2023-02-10T12:20:06;103071.47;;;7.11;50.90
76285;BME280;65096;50.998;7.098;2023-02-10T12:22:50;103071.75;;;7.01;50.86
76285;BME280;65096;50.998;7.098;2023-02-10T12:25:22;103070.13;;;7.03;51.25
76285;BME280;65096;50.998;7.098;2023-02-10T12:27:57;103063.25;;;7.02;51.14
76285;BME280;65096;50.998;7.098;2023-02-10T12:30:38;103057.22;;;7.02;51.13
76285;BME280;65096;50.998;7.098;2023-02-10T12:36:14;103047.16;;;6.90;51.75
76285;BME280;65096;50.998;7.098;2023-02-10T12:38:54;103043.28;;;6.97;51.50
76285;BME280;65096;50.998;7.098;2023-02-10T12:41:30;103036.72;;;6.73;51.13
76285;BME280;65096;50.998;7.098;2023-02-10T12:44:09;103033.34;;;6.88;51.90
76285;BME280;65096;50.998;7.098;2023-02-10T12:46:48;103034.34;;;6.90;51.47
76285;BME280;65096;50.998;7.098;2023-02-10T12:49:33;103037.69;;;6.89;51.60
76285;BME280;65096;50.998;7.098;2023-02-10T12:52:06;103024.94;;;6.91;51.42
76285;BME280;65096;50.998;7.098;2023-02-10T12:54:40;103031.69;;;6.74;51.57
76285;BME280;65096;50.998;7.098;2023-02-10T12:57:14;103020.88;;;6.80;51.41
76285;BME280;65096;50.998;7.098;2023-02-10T12:59:49;103017.00;;;6.86;51.52
76285;BME280;65096;50.998;7.098;2023-02-10T13:02:25;103011.59;;;6.96;52.23
76285;BME280;65096;50.998;7.098;2023-02-10T13:04:55;102985.78;;;6.93;51.93
76285;BME280;65096;50.998;7.098;2023-02-10T13:07:34;103010.69;;;7.10;51.97
76285;BME280;65096;50.998;7.098;2023-02-10T13:10:13;103003.44;;;7.18;51.22
76285;BME280;65096;50.998;7.098;2023-02-10T13:12:44;102997.06;;;7.11;50.83
76285;BME280;65096;50.998;7.098;2023-02-10T13:15:15;102997.78;;;7.09;51.51
76285;BME280;65096;50.998;7.098;2023-02-10T13:17:45;102998.13;;;7.15;51.43
76285;BME280;65096;50.998;7.098;2023-02-10T13:20:24;102991.41;;;7.17;51.54